sensor_id;sensor_type;location;lat;lon;timestamp;pressure;altitude;pressure_sealevel;temperature;humidity
69630;BME280;56857;52.212;5.496;2023-02-11T00:02:13;103411.72;;;6.54;100.00
69630;BME280;56857;52.212;5.496;2023-02-11T00:04:38;103403.81;;;6.54;100.00
69630;BME280;56857;52.212;5.496;2023-02-11T00:07:03;103403.81;;;6.54;100.00
69630;BME280;56857;52.212;5.496;2023-02-11T00:09:29;103395.81;;;6.56;100.00
69630;BME280;56857;52.212;5.496;2023-02-11T00:11:54;103401.97;;;6.56;100.00
69630;BME280;56857;52.212;5.496;2023-02-11T00:14:19;103394.22;;;6.53;100.00
69630;BME280;56857;52.212;5.496;2023-02-11T00:16:45;103398.81;;;6.49;100.00
69630;BME280;56857;52.212;5.496;2023-02-11T00:19:10;103397.19;;;6.47;100.00
69630;BME280;56857;52.212;5.496;2023-02-11T00:21:35;103396.22;;;6.48;100.00
69630;BME280;56857;52.212;5.496;2023-02-11T00:24:01;103394.38;;;6.50;100.00
69630;BME280;56857;52.212;5.496;2023-02-11T00:26:34;103409.34;;;6.49;100.00
69630;BME280;56857;52.212;5.496;2023-02-11T00:29:00;103404.91;;;6.50;100.00
69630;BME280;56857;52.212;5.496;2023-02-11T00:31:27;103417.09;;;6.53;100.00
69630;BME280;56857;52.212;5.496;2023-02-11T00:33:53;103406.56;;;6.53;100.00
69630;BME280;56857;52.212;5.496;2023-02-11T00:36:24;103410.03;;;6.53;100.00
69630;BME280;56857;52.212;5.496;2023-02-11T00:38:51;103410.88;;;6.54;100.00
69630;BME280;56857;52.212;5.496;2023-02-11T00:41:18;103409.09;;;6.54;100.00
69630;BME280;56857;52.212;5.496;2023-02-11T00:43:44;103414.19;;;6.57;100.00
69630;BME280;56857;52.212;5.496;2023-02-11T00:46:10;103403.66;;;6.57;100.00
69630;BME280;56857;52.212;5.496;2023-02-11T00:48:36;103414.19;;;6.57;100.00
69630;BME280;56857;52.212;5.496;2023-02-11T00:51:02;103408.94;;;6.57;100.00
69630;BME280;56857;52.212;5.496;2023-02-11T00:53:27;103409.72;;;6.59;100.00
69630;BME280;56857;52.212;5.496;2023-02-11T00:55:53;103399.25;;;6.58;100.00
69630;BME280;56857;52.212;5.496;2023-02-11T00:58:18;103390.47;;;6.57;100.00
69630;BME280;56857;52.212;5.496;2023-02-11T01:00:44;103388.84;;;6.55;100.00
69630;BME280;56857;52.212;5.496;2023-02-11T01:03:09;103377.47;;;6.54;100.00
69630;BME280;56857;52.212;5.496;2023-02-11T01:05:34;103383.75;;;6.52;100.00
69630;BME280;56857;52.212;5.496;2023-02-11T01:07:59;103382.06;;;6.50;100.00
69630;BME280;56857;52.212;5.496;2023-02-11T01:10:25;103390.81;;;6.51;100.00
69630;BME280;56857;52.212;5.496;2023-02-11T01:12:50;103382.91;;;6.51;100.00
69630;BME280;56857;52.212;5.496;2023-02-11T01:15:17;103365.56;;;6.47;100.00
69630;BME280;56857;52.212;5.496;2023-02-11T01:17:42;103357.97;;;6.41;100.00
69630;BME280;56857;52.212;5.496;2023-02-11T01:20:13;103356.34;;;6.38;100.00
69630;BME280;56857;52.212;5.496;2023-02-11T01:22:39;103346.81;;;6.36;100.00
69630;BME280;56857;52.212;5.496;2023-02-11T01:25:06;103350.53;;;6.32;100.00
69630;BME280;56857;52.212;5.496;2023-02-11T01:27:31;103369.94;;;6.31;100.00
69630;BME280;56857;52.212;5.496;2023-02-11T01:29:57;103377.84;;;6.31;100.00
69630;BME280;56857;52.212;5.496;2023-02-11T01:32:22;103398.81;;;6.32;100.00
69630;BME280;56857;52.212;5.496;2023-02-11T01:34:48;103400.34;;;6.36;100.00
69630;BME280;56857;52.212;5.496;2023-02-11T01:37:14;103398.56;;;6.37;100.00
69630;BME280;56857;52.212;5.496;2023-02-11T01:39:39;103408.19;;;6.38;100.00
69630;BME280;56857;52.212;5.496;2023-02-11T01:42:04;103401.13;;;6.38;100.00
69630;BME280;56857;52.212;5.496;2023-02-11T01:44:35;103389.66;;;6.39;100.00
69630;BME280;56857;52.212;5.496;2023-02-11T01:47:01;103382.75;;;6.37;100.00
69630;BME280;56857;52.212;5.496;2023-02-11T01:49:30;103389.81;;;6.36;100.00
69630;BME280;56857;52.212;5.496;2023-02-11T01:52:13;103397.81;;;6.35;100.00
69630;BME280;56857;52.212;5.496;2023-02-11T01:54:43;103398.56;;;6.37;100.00
69630;BME280;56857;52.212;5.496;2023-02-11T01:57:12;103407.41;;;6.36;100.00
69630;BME280;56857;52.212;5.496;2023-02-11T01:59:53;103401.28;;;6.35;100.00
69630;BME280;56857;52.212;5.496;2023-02-11T02:05:16;103407.34;;;6.37;100.00
69630;BME280;56857;52.212;5.496;2023-02-11T02:07:51;103401.03;;;6.40;100.00
69630;BME280;56857;52.212;5.496;2023-02-11T02:10:21;103398.25;;;6.43;100.00
69630;BME280;56857;52.212;5.496;2023-02-11T02:12:48;103390.28;;;6.44;100.00
69630;BME280;56857;52.212;5.496;2023-02-11T02:17:57;103392.75;;;6.47;100.00
69630;BME280;56857;52.212;5.496;2023-02-11T02:31:43;103380.75;;;6.42;100.00
69630;BME280;56857;52.212;5.496;2023-02-11T02:34:22;103367.50;;;6.43;100.00
69630;BME280;56857;52.212;5.496;2023-02-11T02:37:04;103369.41;;;6.40;100.00
69630;BME280;56857;52.212;5.496;2023-02-11T02:39:34;103372.06;;;6.40;100.00
69630;BME280;56857;52.212;5.496;2023-02-11T02:42:01;103373.78;;;6.41;100.00
69630;BME280;56857;52.212;5.496;2023-02-11T02:44:27;103366.78;;;6.40;100.00
69630;BME280;56857;52.212;5.496;2023-02-11T02:46:54;103370.31;;;6.40;100.00
69630;BME280;56857;52.212;5.496;2023-02-11T02:49:19;103363.25;;;6.41;100.00
69630;BME280;56857;52.212;5.496;2023-02-11T03:02:30;103364.31;;;6.37;100.00
69630;BME280;56857;52.212;5.496;2023-02-11T03:07:43;103360.06;;;6.34;100.00
69630;BME280;56857;52.212;5.496;2023-02-11T03:10:35;103356.75;;;6.31;100.00
69630;BME280;56857;52.212;5.496;2023-02-11T03:13:04;103351.56;;;6.29;100.00
69630;BME280;56857;52.212;5.496;2023-02-11T03:15:35;103343.66;;;6.29;100.00
69630;BME280;56857;52.212;5.496;2023-02-11T03:18:02;103348.06;;;6.29;100.00
69630;BME280;56857;52.212;5.496;2023-02-11T03:20:32;103334.91;;;6.29;100.00
69630;BME280;56857;52.212;5.496;2023-02-11T03:23:29;103337.75;;;6.24;100.00
69630;BME280;56857;52.212;5.496;2023-02-11T03:26:20;103336.16;;;6.21;100.00
69630;BME280;56857;52.212;5.496;2023-02-11T03:28:54;103339.63;;;6.22;100.00
69630;BME280;56857;52.212;5.496;2023-02-11T03:32:00;103331.72;;;6.22;100.00
69630;BME280;56857;52.212;5.496;2023-02-11T03:34:31;103321.19;;;6.22;100.00
69630;BME280;56857;52.212;5.496;2023-02-11T03:37:04;103319.47;;;6.21;100.00
69630;BME280;56857;52.212;5.496;2023-02-11T03:39:38;103323.06;;;6.20;100.00
69630;BME280;56857;52.212;5.496;2023-02-11T03:42:06;103315.31;;;6.17;100.00
69630;BME280;56857;52.212;5.496;2023-02-11T03:44:37;103316.25;;;6.16;100.00
69630;BME280;56857;52.212;5.496;2023-02-11T03:47:07;103321.53;;;6.16;100.00
69630;BME280;56857;52.212;5.496;2023-02-11T03:49:35;103327.78;;;6.13;100.00
69630;BME280;56857;52.212;5.496;2023-02-11T03:52:03;103332.06;;;6.16;100.00
69630;BME280;56857;52.212;5.496;2023-02-11T03:54:30;103344.28;;;6.17;100.00
69630;BME280;56857;52.212;5.496;2023-02-11T03:56:58;103336.31;;;6.18;100.00
69630;BME280;56857;52.212;5.496;2023-02-11T03:59:24;103337.06;;;6.20;100.00
69630;BME280;56857;52.212;5.496;2023-02-11T04:01:50;103342.28;;;6.22;100.00
69630;BME280;56857;52.212;5.496;2023-02-11T04:04:16;103340.38;;;6.24;100.00
69630;BME280;56857;52.212;5.496;2023-02-11T04:06:42;103335.22;;;6.22;100.00
69630;BME280;56857;52.212;5.496;2023-02-11T04:09:07;103350.06;;;6.23;100.00
69630;BME280;56857;52.212;5.496;2023-02-11T04:11:32;103355.28;;;6.25;100.00
69630;BME280;56857;52.212;5.496;2023-02-11T04:13:58;103350.88;;;6.25;100.00
69630;BME280;56857;52.212;5.496;2023-02-11T04:16:23;103344.59;;;6.28;100.00
69630;BME280;56857;52.212;5.496;2023-02-11T04:18:48;103342.81;;;6.29;100.00
69630;BME280;56857;52.212;5.496;2023-02-11T04:21:14;103336.69;;;6.28;100.00
69630;BME280;56857;52.212;5.496;2023-02-11T04:23:39;103344.50;;;6.30;100.00
69630;BME280;56857;52.212;5.496;2023-02-11T04:26:05;103350.59;;;6.30;100.00
69630;BME280;56857;52.212;5.496;2023-02-11T04:28:30;103354.97;;;6.31;100.00
69630;BME280;56857;52.212;5.496;2023-02-11T04:30:56;103358.44;;;6.32;100.00
69630;BME280;56857;52.212;5.496;2023-02-11T04:33:22;103351.31;;;6.34;100.00
69630;BME280;56857;52.212;5.496;2023-02-11T04:35:48;103353.97;;;6.34;100.00
69630;BME280;56857;52.212;5.496;2023-02-11T04:38:13;103348.59;;;6.35;100.00
69630;BME280;56857;52.212;5.496;2023-02-11T04:40:39;103351.22;;;6.35;100.00
69630;BME280;56857;52.212;5.496;2023-02-11T04:43:06;103355.66;;;6.35;100.00
69630;BME280;56857;52.212;5.496;2023-02-11T04:45:32;103353.97;;;6.34;100.00
69630;BME280;56857;52.212;5.496;2023-02-11T04:47:57;103349.53;;;6.34;100.00
69630;BME280;56857;52.212;5.496;2023-02-11T04:50:23;103353.78;;;6.37;100.00
69630;BME280;56857;52.212;5.496;2023-02-11T04:52:48;103351.22;;;6.35;100.00
69630;BME280;56857;52.212;5.496;2023-02-11T04:55:14;103354.13;;;6.31;100.00
69630;BME280;56857;52.212;5.496;2023-02-11T04:57:39;103357.59;;;6.31;100.00
69630;BME280;56857;52.212;5.496;2023-02-11T05:00:05;103357.44;;;6.34;100.00
69630;BME280;56857;52.212;5.496;2023-02-11T05:02:30;103357.34;;;6.36;100.00
69630;BME280;56857;52.212;5.496;2023-02-11T05:04:56;103355.41;;;6.39;100.00
69630;BME280;56857;52.212;5.496;2023-02-11T05:07:21;103357.88;;;6.42;100.00
69630;BME280;56857;52.212;5.496;2023-02-11T05:09:47;103344.63;;;6.44;100.00
69630;BME280;56857;52.212;5.496;2023-02-11T05:12:12;103349.06;;;6.43;100.00
69630;BME280;56857;52.212;5.496;2023-02-11T05:14:38;103342.75;;;6.46;100.00
69630;BME280;56857;52.212;5.496;2023-02-11T05:17:03;103360.34;;;6.45;100.00
69630;BME280;56857;52.212;5.496;2023-02-11T05:19:28;103360.34;;;6.45;100.00
69630;BME280;56857;52.212;5.496;2023-02-11T05:21:54;103362.91;;;6.47;100.00
69630;BME280;56857;52.212;5.496;2023-02-11T05:24:19;103361.97;;;6.48;100.00
69630;BME280;56857;52.212;5.496;2023-02-11T05:26:44;103354.91;;;6.48;100.00
69630;BME280;56857;52.212;5.496;2023-02-11T05:29:10;103357.56;;;6.48;100.00
69630;BME280;56857;52.212;5.496;2023-02-11T05:31:35;103353.13;;;6.49;100.00
69630;BME280;56857;52.212;5.496;2023-02-11T05:34:00;103344.31;;;6.50;100.00
69630;BME280;56857;52.212;5.496;2023-02-11T05:36:26;103347.78;;;6.50;100.00
69630;BME280;56857;52.212;5.496;2023-02-11T05:38:51;103345.16;;;6.50;100.00
69630;BME280;56857;52.212;5.496;2023-02-11T05:41:18;103346.00;;;6.51;100.00
69630;BME280;56857;52.212;5.496;2023-02-11T05:43:43;103344.38;;;6.48;100.00
69630;BME280;56857;52.212;5.496;2023-02-11T05:46:08;103351.38;;;6.49;100.00
69630;BME280;56857;52.212;5.496;2023-02-11T05:48:34;103346.00;;;6.51;100.00
69630;BME280;56857;52.212;5.496;2023-02-11T05:50:59;103351.22;;;6.53;100.00
69630;BME280;56857;52.212;5.496;2023-02-11T05:53:24;103349.25;;;6.56;100.00
69630;BME280;56857;52.212;5.496;2023-02-11T05:55:49;103357.22;;;6.55;100.00
69630;BME280;56857;52.212;5.496;2023-02-11T05:58:15;103349.44;;;6.53;100.00
69630;BME280;56857;52.212;5.496;2023-02-11T06:00:40;103350.16;;;6.55;100.00
69630;BME280;56857;52.212;5.496;2023-02-11T06:03:06;103365.97;;;6.55;100.00
69630;BME280;56857;52.212;5.496;2023-02-11T06:05:31;103361.50;;;6.57;100.00
69630;BME280;56857;52.212;5.496;2023-02-11T06:07:57;103366.50;;;6.62;100.00
69630;BME280;56857;52.212;5.496;2023-02-11T06:10:22;103366.44;;;6.63;100.00
69630;BME280;56857;52.212;5.496;2023-02-11T06:12:48;103365.34;;;6.67;100.00
69630;BME280;56857;52.212;5.496;2023-02-11T06:15:13;103368.75;;;6.69;100.00
69630;BME280;56857;52.212;5.496;2023-02-11T06:17:38;103367.81;;;6.70;100.00
69630;BME280;56857;52.212;5.496;2023-02-11T06:20:06;103369.59;;;6.70;100.00
69630;BME280;56857;52.212;5.496;2023-02-11T06:22:32;103378.28;;;6.72;100.00
69630;BME280;56857;52.212;5.496;2023-02-11T06:24:57;103374.81;;;6.71;100.00
69630;BME280;56857;52.212;5.496;2023-02-11T06:27:22;103372.06;;;6.73;100.00
69630;BME280;56857;52.212;5.496;2023-02-11T06:29:48;103364.94;;;6.75;100.00
69630;BME280;56857;52.212;5.496;2023-02-11T06:32:14;103372.75;;;6.77;100.00
69630;BME280;56857;52.212;5.496;2023-02-11T06:34:39;103364.84;;;6.77;100.00
69630;BME280;56857;52.212;5.496;2023-02-11T06:37:05;103360.59;;;6.74;100.00
69630;BME280;56857;52.212;5.496;2023-02-11T06:39:30;103356.09;;;6.76;100.00
69630;BME280;56857;52.212;5.496;2023-02-11T06:41:56;103353.34;;;6.78;100.00
69630;BME280;56857;52.212;5.496;2023-02-11T06:44:21;103351.59;;;6.78;100.00
69630;BME280;56857;52.212;5.496;2023-02-11T06:46:47;103353.34;;;6.78;100.00
69630;BME280;56857;52.212;5.496;2023-02-11T06:49:12;103360.34;;;6.79;100.00
69630;BME280;56857;52.212;5.496;2023-02-11T06:51:38;103355.09;;;6.79;100.00
69630;BME280;56857;52.212;5.496;2023-02-11T06:54:05;103354.13;;;6.80;100.00
69630;BME280;56857;52.212;5.496;2023-02-11T06:56:30;103360.34;;;6.79;100.00
69630;BME280;56857;52.212;5.496;2023-02-11T06:58:56;103365.53;;;6.80;100.00
69630;BME280;56857;52.212;5.496;2023-02-11T07:01:22;103361.97;;;6.81;100.00
69630;BME280;56857;52.212;5.496;2023-02-11T07:03:48;103364.53;;;6.83;100.00
69630;BME280;56857;52.212;5.496;2023-02-11T07:06:16;103365.53;;;6.80;100.00
69630;BME280;56857;52.212;5.496;2023-02-11T07:08:42;103371.59;;;6.82;100.00
69630;BME280;56857;52.212;5.496;2023-02-11T07:11:13;103373.44;;;6.80;100.00
69630;BME280;56857;52.212;5.496;2023-02-11T07:13:38;103372.59;;;6.80;100.00
69630;BME280;56857;52.212;5.496;2023-02-11T07:16:05;103379.66;;;6.79;100.00
69630;BME280;56857;52.212;5.496;2023-02-11T07:18:31;103383.81;;;6.83;100.00
69630;BME280;56857;52.212;5.496;2023-02-11T07:20:56;103382.91;;;6.84;100.00
69630;BME280;56857;52.212;5.496;2023-02-11T07:23:22;103388.09;;;6.86;100.00
69630;BME280;56857;52.212;5.496;2023-02-11T07:25:47;103399.41;;;6.88;100.00
69630;BME280;56857;52.212;5.496;2023-02-11T07:28:12;103400.09;;;6.91;100.00
69630;BME280;56857;52.212;5.496;2023-02-11T07:30:38;103405.38;;;6.91;100.00
69630;BME280;56857;52.212;5.496;2023-02-11T07:33:03;103397.47;;;6.91;100.00
69630;BME280;56857;52.212;5.496;2023-02-11T07:35:28;103400.00;;;6.93;100.00
69630;BME280;56857;52.212;5.496;2023-02-11T07:37:54;103404.34;;;6.94;100.00
69630;BME280;56857;52.212;5.496;2023-02-11T07:40:19;103414.81;;;6.95;100.00
69630;BME280;56857;52.212;5.496;2023-02-11T07:42:45;103412.94;;;6.97;100.00
69630;BME280;56857;52.212;5.496;2023-02-11T07:45:10;103410.31;;;6.97;100.00
69630;BME280;56857;52.212;5.496;2023-02-11T07:47:35;103409.47;;;6.97;100.00
69630;BME280;56857;52.212;5.496;2023-02-11T07:50:00;103404.09;;;6.99;100.00
69630;BME280;56857;52.212;5.496;2023-02-11T07:52:29;103398.75;;;7.00;100.00
69630;BME280;56857;52.212;5.496;2023-02-11T07:54:55;103396.00;;;7.02;100.00
69630;BME280;56857;52.212;5.496;2023-02-11T07:57:21;103394.16;;;7.04;100.00
69630;BME280;56857;52.212;5.496;2023-02-11T07:59:46;103401.13;;;7.05;100.00
69630;BME280;56857;52.212;5.496;2023-02-11T08:02:12;103396.69;;;7.05;100.00
69630;BME280;56857;52.212;5.496;2023-02-11T08:04:37;103399.25;;;7.07;100.00
69630;BME280;56857;52.212;5.496;2023-02-11T08:07:03;103407.94;;;7.09;100.00
69630;BME280;56857;52.212;5.496;2023-02-11T08:09:28;103412.97;;;7.13;100.00
69630;BME280;56857;52.212;5.496;2023-02-11T08:11:53;103406.75;;;7.14;100.00
69630;BME280;56857;52.212;5.496;2023-02-11T08:14:18;103416.34;;;7.15;100.00
69630;BME280;56857;52.212;5.496;2023-02-11T08:16:44;103409.16;;;7.19;100.00
69630;BME280;56857;52.212;5.496;2023-02-11T08:19:13;103401.97;;;7.21;100.00
69630;BME280;56857;52.212;5.496;2023-02-11T08:21:39;103401.91;;;7.23;100.00
69630;BME280;56857;52.212;5.496;2023-02-11T08:24:05;103394.91;;;7.22;100.00
69630;BME280;56857;52.212;5.496;2023-02-11T08:26:32;103402.75;;;7.23;100.00
69630;BME280;56857;52.212;5.496;2023-02-11T08:28:58;103407.09;;;7.24;100.00
69630;BME280;56857;52.212;5.496;2023-02-11T08:31:25;103409.72;;;7.24;100.00
69630;BME280;56857;52.212;5.496;2023-02-11T08:33:52;103417.56;;;7.26;100.00
69630;BME280;56857;52.212;5.496;2023-02-11T08:36:20;103417.56;;;7.26;100.00
69630;BME280;56857;52.212;5.496;2023-02-11T08:38:46;103419.19;;;7.28;100.00
69630;BME280;56857;52.212;5.496;2023-02-11T08:41:12;103426.91;;;7.31;100.00
69630;BME280;56857;52.212;5.496;2023-02-11T08:43:37;103422.41;;;7.33;100.00
69630;BME280;56857;52.212;5.496;2023-02-11T08:46:03;103420.56;;;7.35;100.00
69630;BME280;56857;52.212;5.496;2023-02-11T08:48:29;103430.09;;;7.38;100.00
69630;BME280;56857;52.212;5.496;2023-02-11T08:50:55;103444.03;;;7.40;100.00
69630;BME280;56857;52.212;5.496;2023-02-11T08:53:21;103437.75;;;7.42;100.00
69630;BME280;56857;52.212;5.496;2023-02-11T08:55:48;103431.44;;;7.45;100.00
69630;BME280;56857;52.212;5.496;2023-02-11T08:58:13;103435.59;;;7.49;100.00
69630;BME280;56857;52.212;5.496;2023-02-11T09:00:38;103436.28;;;7.53;100.00
69630;BME280;56857;52.212;5.496;2023-02-11T09:03:04;103430.84;;;7.56;100.00
69630;BME280;56857;52.212;5.496;2023-02-11T09:05:29;103440.47;;;7.57;100.00
69630;BME280;56857;52.212;5.496;2023-02-11T09:07:55;103437.66;;;7.60;100.00
69630;BME280;56857;52.212;5.496;2023-02-11T09:10:20;103444.53;;;7.62;100.00
69630;BME280;56857;52.212;5.496;2023-02-11T09:12:45;103452.22;;;7.67;100.00
69630;BME280;56857;52.212;5.496;2023-02-11T09:15:10;103452.03;;;7.70;100.00
69630;BME280;56857;52.212;5.496;2023-02-11T09:17:36;103457.06;;;7.75;100.00
69630;BME280;56857;52.212;5.496;2023-02-11T09:20:01;103461.13;;;7.80;100.00
69630;BME280;56857;52.212;5.496;2023-02-11T09:22:27;103460.91;;;7.85;100.00
69630;BME280;56857;52.212;5.496;2023-02-11T09:24:52;103465.06;;;7.89;100.00
69630;BME280;56857;52.212;5.496;2023-02-11T09:27:17;103465.63;;;7.94;100.00
69630;BME280;56857;52.212;5.496;2023-02-11T09:29:43;103468.09;;;7.97;100.00
69630;BME280;56857;52.212;5.496;2023-02-11T09:32:08;103471.44;;;8.01;100.00
69630;BME280;56857;52.212;5.496;2023-02-11T09:34:34;103469.53;;;8.03;100.00
69630;BME280;56857;52.212;5.496;2023-02-11T09:37:00;103471.22;;;8.04;100.00
69630;BME280;56857;52.212;5.496;2023-02-11T09:39:25;103477.22;;;8.07;100.00
69630;BME280;56857;52.212;5.496;2023-02-11T09:44:38;103483.91;;;8.13;100.00
69630;BME280;56857;52.212;5.496;2023-02-11T09:47:38;103484.69;;;8.15;100.00
69630;BME280;56857;52.212;5.496;2023-02-11T09:50:18;103486.97;;;8.21;100.00
69630;BME280;56857;52.212;5.496;2023-02-11T09:52:50;103485.78;;;8.27;100.00
69630;BME280;56857;52.212;5.496;2023-02-11T09:55:24;103488.97;;;8.32;100.00
69630;BME280;56857;52.212;5.496;2023-02-11T09:57:50;103492.41;;;8.34;100.00
69630;BME280;56857;52.212;5.496;2023-02-11T10:00:28;103499.38;;;8.35;100.00
69630;BME280;56857;52.212;5.496;2023-02-11T10:02:57;103504.44;;;8.40;100.00
69630;BME280;56857;52.212;5.496;2023-02-11T10:05:34;103506.13;;;8.41;100.00
69630;BME280;56857;52.212;5.496;2023-02-11T10:14:24;103520.63;;;8.49;100.00
69630;BME280;56857;52.212;5.496;2023-02-11T10:17:50;103524.69;;;8.55;100.00
69630;BME280;56857;52.212;5.496;2023-02-11T10:20:12;103524.59;;;8.56;100.00
69630;BME280;56857;52.212;5.496;2023-02-11T10:22:52;103532.16;;;8.63;100.00
69630;BME280;56857;52.212;5.496;2023-02-11T10:25:33;103537.19;;;8.67;100.00
69630;BME280;56857;52.212;5.496;2023-02-11T10:28:00;103531.63;;;8.72;100.00
69630;BME280;56857;52.212;5.496;2023-02-11T10:30:41;103533.78;;;8.79;100.00
69630;BME280;56857;52.212;5.496;2023-02-11T10:35:36;103539.31;;;8.91;100.00
69630;BME280;56857;52.212;5.496;2023-02-11T10:38:02;103548.09;;;8.91;100.00
69630;BME280;56857;52.212;5.496;2023-02-11T10:40:29;103538.28;;;8.93;100.00
69630;BME280;56857;52.212;5.496;2023-02-11T10:42:57;103545.19;;;8.96;100.00
69630;BME280;56857;52.212;5.496;2023-02-11T10:45:33;103552.06;;;8.98;100.00
69630;BME280;56857;52.212;5.496;2023-02-11T10:48:03;103553.69;;;9.01;100.00
69630;BME280;56857;52.212;5.496;2023-02-11T10:50:31;103558.03;;;9.02;100.00
69630;BME280;56857;52.212;5.496;2023-02-11T10:53:23;103544.81;;;9.02;100.00
69630;BME280;56857;52.212;5.496;2023-02-11T10:55:57;103542.91;;;9.04;100.00
69630;BME280;56857;52.212;5.496;2023-02-11T10:58:29;103541.09;;;9.04;100.00
69630;BME280;56857;52.212;5.496;2023-02-11T11:00:56;103552.38;;;9.08;100.00
69630;BME280;56857;52.212;5.496;2023-02-11T11:03:25;103547.81;;;9.10;100.00
69630;BME280;56857;52.212;5.496;2023-02-11T11:05:57;103558.16;;;9.15;100.00
69630;BME280;56857;52.212;5.496;2023-02-11T11:11:07;103563.72;;;9.24;100.00
69630;BME280;56857;52.212;5.496;2023-02-11T11:13:38;103565.81;;;9.34;100.00
69630;BME280;56857;52.212;5.496;2023-02-11T11:16:15;103565.53;;;9.38;100.00
69630;BME280;56857;52.212;5.496;2023-02-11T11:18:44;103569.00;;;9.39;100.00
69630;BME280;56857;52.212;5.496;2023-02-11T11:21:32;103575.25;;;9.38;100.00
69630;BME280;56857;52.212;5.496;2023-02-11T11:24:01;103578.88;;;9.37;100.00
69630;BME280;56857;52.212;5.496;2023-02-11T11:26:41;103582.16;;;9.40;100.00
69630;BME280;56857;52.212;5.496;2023-02-11T11:32:02;103591.16;;;9.52;100.00
69630;BME280;56857;52.212;5.496;2023-02-11T11:34:36;103592.47;;;9.59;100.00
69630;BME280;56857;52.212;5.496;2023-02-11T11:37:10;103583.38;;;9.63;100.00
69630;BME280;56857;52.212;5.496;2023-02-11T11:39:56;103589.25;;;9.68;100.00
69630;BME280;56857;52.212;5.496;2023-02-11T11:42:29;103582.69;;;9.74;100.00
69630;BME280;56857;52.212;5.496;2023-02-11T11:45:20;103584.22;;;9.78;100.00
69630;BME280;56857;52.212;5.496;2023-02-11T11:47:57;103574.34;;;9.80;100.00
69630;BME280;56857;52.212;5.496;2023-02-11T11:50:42;103569.63;;;9.85;100.00
69630;BME280;56857;52.212;5.496;2023-02-11T11:55:58;103578.22;;;10.03;100.00
69630;BME280;56857;52.212;5.496;2023-02-11T11:58:27;103570.59;;;10.11;100.00
69630;BME280;56857;52.212;5.496;2023-02-11T12:08:43;103561.31;;;10.46;100.00
69630;BME280;56857;52.212;5.496;2023-02-11T12:16:52;103547.25;;;10.71;100.00
69630;BME280;56857;52.212;5.496;2023-02-11T12:19:47;103557.47;;;10.77;100.00
69630;BME280;56857;52.212;5.496;2023-02-11T12:22:25;103563.63;;;10.77;100.00
69630;BME280;56857;52.212;5.496;2023-02-11T12:27:50;103555.34;;;10.82;100.00
69630;BME280;56857;52.212;5.496;2023-02-11T12:41:30;103558.75;;;11.09;100.00
69630;BME280;56857;52.212;5.496;2023-02-11T12:43:56;103563.22;;;11.09;100.00
69630;BME280;56857;52.212;5.496;2023-02-11T12:46:40;103564.28;;;11.06;100.00
69630;BME280;56857;52.212;5.496;2023-02-11T12:49:29;103563.97;;;10.98;100.00
69630;BME280;56857;52.212;5.496;2023-02-11T12:52:16;103555.25;;;10.83;100.00
69630;BME280;56857;52.212;5.496;2023-02-11T12:55:00;103554.59;;;10.80;100.00
69630;BME280;56857;52.212;5.496;2023-02-11T12:57:29;103542.81;;;10.84;100.00
69630;BME280;56857;52.212;5.496;2023-02-11T13:05:28;103554.75;;;11.04;100.00
69630;BME280;56857;52.212;5.496;2023-02-11T13:08:03;103558.53;;;11.12;100.00
69630;BME280;56857;52.212;5.496;2023-02-11T13:10:36;103555.47;;;11.19;100.00
69630;BME280;56857;52.212;5.496;2023-02-11T13:13:39;103558.75;;;11.09;100.00
69630;BME280;56857;52.212;5.496;2023-02-11T13:16:24;103557.69;;;10.99;100.00
69630;BME280;56857;52.212;5.496;2023-02-11T13:24:41;103551.31;;;10.76;100.00
69630;BME280;56857;52.212;5.496;2023-02-11T13:35:40;103539.94;;;10.61;100.00
69630;BME280;56857;52.212;5.496;2023-02-11T13:38:24;103541.94;;;10.58;100.00
69630;BME280;56857;52.212;5.496;2023-02-11T13:41:05;103545.44;;;10.58;100.00
69630;BME280;56857;52.212;5.496;2023-02-11T13:43:39;103539.94;;;10.61;100.00
69630;BME280;56857;52.212;5.496;2023-02-11T13:46:07;103540.69;;;10.63;100.00
69630;BME280;56857;52.212;5.496;2023-02-11T13:48:40;103532.09;;;10.60;100.00
69630;BME280;56857;52.212;5.496;2023-02-11T13:51:12;103538.13;;;10.62;100.00
69630;BME280;56857;52.212;5.496;2023-02-11T13:53:55;103534.75;;;10.73;100.00
69630;BME280;56857;52.212;5.496;2023-02-11T13:58:56;103541.13;;;10.83;100.00
69630;BME280;56857;52.212;5.496;2023-02-11T14:04:21;103546.66;;;10.93;100.00
69630;BME280;56857;52.212;5.496;2023-02-11T14:09:47;103558.97;;;10.94;100.00
69630;BME280;56857;52.212;5.496;2023-02-11T14:12:29;103551.53;;;10.86;100.00
69630;BME280;56857;52.212;5.496;2023-02-11T14:15:00;103551.31;;;10.76;100.00
69630;BME280;56857;52.212;5.496;2023-02-11T14:17:33;103552.97;;;10.64;100.00
69630;BME280;56857;52.212;5.496;2023-02-11T14:20:00;103556.03;;;10.58;100.00
69630;BME280;56857;52.212;5.496;2023-02-11T14:22:40;103553.06;;;10.50;100.00
69630;BME280;56857;52.212;5.496;2023-02-11T14:25:34;103551.88;;;10.41;100.00
69630;BME280;56857;52.212;5.496;2023-02-11T14:28:07;103554.19;;;10.33;100.00
69630;BME280;56857;52.212;5.496;2023-02-11T14:30:42;103549.91;;;10.31;100.00
69630;BME280;56857;52.212;5.496;2023-02-11T14:33:21;103551.84;;;10.29;100.00
69630;BME280;56857;52.212;5.496;2023-02-11T14:38:50;103555.22;;;10.31;100.00
69630;BME280;56857;52.212;5.496;2023-02-11T14:41:35;103557.47;;;10.37;100.00
69630;BME280;56857;52.212;5.496;2023-02-11T14:44:05;103559.00;;;10.41;100.00
69630;BME280;56857;52.212;5.496;2023-02-11T14:46:33;103566.63;;;10.46;100.00
69630;BME280;56857;52.212;5.496;2023-02-11T14:49:00;103563.03;;;10.47;100.00